createdAt,value
2018-07-06T00:00:07.241Z,21.82
2018-07-06T00:02:52.484Z,21.86
2018-07-06T00:05:31.865Z,21.80
2018-07-06T00:08:16.938Z,21.79
2018-07-06T00:11:02.150Z,21.84
2018-07-06T00:13:47.157Z,21.77
2018-07-06T00:16:32.258Z,21.84
2018-07-06T00:19:17.320Z,21.79
2018-07-06T00:22:02.503Z,21.74
2018-07-06T00:24:47.571Z,21.69
2018-07-06T00:27:32.765Z,21.72
2018-07-06T00:30:17.961Z,21.68
2018-07-06T00:33:03.102Z,21.65
2018-07-06T00:35:48.234Z,21.59
2018-07-06T00:38:33.503Z,21.55
2018-07-06T00:41:18.640Z,21.53
2018-07-06T00:44:03.706Z,21.53
2018-07-06T00:46:48.799Z,21.50
2018-07-06T00:49:34.128Z,21.45
2018-07-06T00:52:19.760Z,21.42
2018-07-06T00:55:05.093Z,21.39
2018-07-06T00:57:50.899Z,21.40
2018-07-06T01:00:30.360Z,21.35
2018-07-06T01:03:15.462Z,21.32
2018-07-06T01:06:00.557Z,21.22
2018-07-06T01:08:45.725Z,21.13
2018-07-06T01:11:31.124Z,21.11
2018-07-06T01:14:16.229Z,21.18
2018-07-06T01:17:01.310Z,21.17
2018-07-06T01:19:46.370Z,21.19
2018-07-06T01:22:31.503Z,21.12
2018-07-06T01:25:16.693Z,21.06
2018-07-06T01:28:01.845Z,21.02
2018-07-06T01:30:46.909Z,20.96
2018-07-06T01:33:32.181Z,20.96
2018-07-06T01:36:17.277Z,21.00
2018-07-06T01:39:02.503Z,20.99
2018-07-06T01:41:47.760Z,20.99
2018-07-06T01:44:32.957Z,20.87
2018-07-06T01:47:18.228Z,20.87
2018-07-06T01:50:03.565Z,20.81
2018-07-06T01:52:48.909Z,20.68
2018-07-06T01:55:34.308Z,20.67
2018-07-06T01:58:19.747Z,20.66
2018-07-06T02:01:04.742Z,20.57
2018-07-06T02:03:49.893Z,20.66
2018-07-06T02:06:35.140Z,20.58
2018-07-06T02:09:20.513Z,20.49
2018-07-06T02:11:59.743Z,20.48
2018-07-06T02:14:44.920Z,20.49
2018-07-06T02:17:30.049Z,20.48
2018-07-06T02:20:15.422Z,20.54
2018-07-06T02:23:00.944Z,20.47
2018-07-06T02:25:45.958Z,20.40
2018-07-06T02:28:31.132Z,20.38
2018-07-06T02:31:16.481Z,20.34
2018-07-06T02:34:01.557Z,20.26
2018-07-06T02:36:46.622Z,20.28
2018-07-06T02:39:31.789Z,20.25
2018-07-06T02:42:17.093Z,20.23
2018-07-06T02:45:02.248Z,20.29
2018-07-06T02:47:41.648Z,20.15
2018-07-06T02:50:26.849Z,20.22
2018-07-06T02:53:11.945Z,20.15
2018-07-06T02:55:57.215Z,20.08
2018-07-06T02:58:42.326Z,20.09
2018-07-06T03:01:27.494Z,20.08
2018-07-06T03:04:12.717Z,19.97
2018-07-06T03:06:57.827Z,20.01
2018-07-06T03:09:42.985Z,19.88
2018-07-06T03:12:28.061Z,19.86
2018-07-06T03:15:13.201Z,19.88
2018-07-06T03:17:58.490Z,19.88
2018-07-06T03:20:43.839Z,19.77
2018-07-06T03:23:28.921Z,19.75
2018-07-06T03:26:14.078Z,19.70
2018-07-06T03:28:59.205Z,19.73
2018-07-06T03:31:44.398Z,19.71
2018-07-06T03:34:29.386Z,19.63
2018-07-06T03:37:14.660Z,19.60
2018-07-06T03:39:59.783Z,19.56
2018-07-06T03:42:45.017Z,19.55
2018-07-06T03:45:29.989Z,19.60
2018-07-06T03:48:15.074Z,19.55
2018-07-06T03:51:00.289Z,19.69
2018-07-06T03:53:46.177Z,19.55
2018-07-06T03:56:31.416Z,19.51
2018-07-06T03:59:16.681Z,19.48
2018-07-06T04:02:01.841Z,19.47
2018-07-06T04:04:47.065Z,19.51
2018-07-06T04:07:32.085Z,19.45
2018-07-06T04:10:17.363Z,19.55
2018-07-06T04:13:02.464Z,19.47
2018-07-06T04:15:47.621Z,19.54
2018-07-06T04:18:32.615Z,19.48
2018-07-06T04:21:17.701Z,19.54
2018-07-06T04:24:02.938Z,19.55
2018-07-06T04:26:48.122Z,19.57
2018-07-06T04:29:33.337Z,19.56
2018-07-06T04:32:18.378Z,19.63
2018-07-06T04:35:03.577Z,19.65
2018-07-06T04:37:49.123Z,19.69
2018-07-06T04:40:34.312Z,19.72
2018-07-06T04:43:13.565Z,19.79
2018-07-06T04:45:58.890Z,19.80
2018-07-06T04:48:44.177Z,19.90
2018-07-06T04:51:29.275Z,20.03
2018-07-06T04:54:14.332Z,20.09
2018-07-06T04:56:59.544Z,20.32
2018-07-06T04:59:44.923Z,20.69
2018-07-06T05:02:30.224Z,21.34
2018-07-06T05:05:15.252Z,22.12
2018-07-06T05:08:00.830Z,22.73
2018-07-06T05:10:46.109Z,23.28
2018-07-06T05:13:31.469Z,24.21
2018-07-06T05:16:16.821Z,24.68
2018-07-06T05:19:01.918Z,25.25
2018-07-06T05:21:46.981Z,25.57
2018-07-06T05:24:32.209Z,26.04
2018-07-06T05:27:17.217Z,26.36
2018-07-06T05:30:02.378Z,26.58
2018-07-06T05:32:47.769Z,27.17
2018-07-06T05:35:32.902Z,27.56
2018-07-06T05:38:18.013Z,28.25
2018-07-06T05:41:03.073Z,28.84
2018-07-06T05:43:48.164Z,29.16
2018-07-06T05:46:33.565Z,29.39
2018-07-06T05:49:18.728Z,30.09
2018-07-06T05:52:03.921Z,30.20
2018-07-06T05:54:49.012Z,30.35
2018-07-06T05:57:34.201Z,30.10
2018-07-06T06:00:19.437Z,29.70
2018-07-06T06:02:58.669Z,29.25
2018-07-06T06:05:43.849Z,29.15
2018-07-06T06:08:10.284Z,28.26
2018-07-06T06:10:38.197Z,28.22
2018-07-06T06:13:06.313Z,28.09
2018-07-06T06:15:34.229Z,28.02
2018-07-06T06:18:02.157Z,28.09
2018-07-06T06:20:30.094Z,27.91
2018-07-06T06:22:57.959Z,27.96
2018-07-06T06:25:25.898Z,28.08
2018-07-06T06:27:53.770Z,27.99
2018-07-06T06:30:21.690Z,27.86
2018-07-06T06:32:49.763Z,27.80
2018-07-06T06:35:17.756Z,27.97
2018-07-06T06:37:45.821Z,28.02
2018-07-06T06:40:13.700Z,27.92
2018-07-06T06:42:41.650Z,27.87
2018-07-06T06:45:09.821Z,27.27
2018-07-06T06:47:39.245Z,27.48
2018-07-06T06:50:07.405Z,27.30
2018-07-06T06:52:35.816Z,27.26
2018-07-06T06:55:03.910Z,27.14
2018-07-06T06:57:31.892Z,27.23
2018-07-06T06:59:59.973Z,27.14
2018-07-06T07:02:27.960Z,27.07
2018-07-06T07:04:55.868Z,27.26
2018-07-06T07:07:23.888Z,27.06
2018-07-06T07:09:51.786Z,26.85
2018-07-06T07:12:19.766Z,27.05
2018-07-06T07:14:47.758Z,26.86
2018-07-06T07:17:15.846Z,26.93
2018-07-06T07:19:43.941Z,27.00
2018-07-06T07:22:11.948Z,27.00
2018-07-06T07:24:40.108Z,26.62
2018-07-06T07:27:08.062Z,26.69
2018-07-06T07:29:36.049Z,26.57
2018-07-06T07:32:03.989Z,26.54
2018-07-06T07:34:31.942Z,26.51
2018-07-06T07:36:59.825Z,26.39
2018-07-06T07:39:27.725Z,26.40
2018-07-06T07:41:55.759Z,26.28
2018-07-06T07:44:23.765Z,26.21
2018-07-06T07:46:51.825Z,26.05
2018-07-06T07:49:19.729Z,25.97
2018-07-06T07:52:07.356Z,25.73
2018-07-06T07:54:42.643Z,25.81
2018-07-06T07:57:10.633Z,25.77
2018-07-06T07:59:39.352Z,25.53
2018-07-06T08:02:07.405Z,25.47
2018-07-06T08:04:35.421Z,25.04
2018-07-06T08:07:03.421Z,25.07
2018-07-06T08:09:32.244Z,24.97
2018-07-06T08:12:01.478Z,24.94
2018-07-06T08:14:29.511Z,25.05
2018-07-06T08:16:57.429Z,25.23
2018-07-06T08:19:25.401Z,25.10
2018-07-06T08:21:53.492Z,25.11
2018-07-06T08:24:21.581Z,25.21
2018-07-06T08:26:49.665Z,25.19
2018-07-06T08:29:17.536Z,25.21
2018-07-06T08:31:45.684Z,25.19
2018-07-06T08:34:30.925Z,25.19
2018-07-06T08:37:44.739Z,25.31
2018-07-06T08:40:12.840Z,25.34
2018-07-06T08:42:44.113Z,25.29
2018-07-06T08:45:12.397Z,25.25
2018-07-06T08:47:40.700Z,25.15
2018-07-06T08:50:08.894Z,25.07
2018-07-06T08:52:37.607Z,25.16
2018-07-06T08:55:05.929Z,25.17
2018-07-06T08:57:34.487Z,25.22
2018-07-06T09:00:02.408Z,25.20
2018-07-06T09:02:30.333Z,25.13
2018-07-06T09:04:59.050Z,25.20
2018-07-06T09:07:27.033Z,25.02
2018-07-06T09:09:55.713Z,25.15
2018-07-06T09:12:23.644Z,25.14
2018-07-06T09:14:51.581Z,25.19
2018-07-06T09:17:20.157Z,25.22
2018-07-06T09:19:48.459Z,25.16
2018-07-06T09:22:16.849Z,25.28
2018-07-06T09:24:45.684Z,25.28
2018-07-06T09:27:13.701Z,25.41
2018-07-06T09:29:41.712Z,25.67
2018-07-06T09:32:09.734Z,25.94
2018-07-06T09:34:37.837Z,26.17
2018-07-06T09:37:06.081Z,25.93
2018-07-06T09:39:33.896Z,26.07
2018-07-06T09:42:02.014Z,26.07
2018-07-06T09:44:30.013Z,26.00
2018-07-06T09:46:58.077Z,26.18
2018-07-06T09:49:26.066Z,26.29
2018-07-06T09:51:54.270Z,26.73
2018-07-06T09:54:22.157Z,27.12
2018-07-06T09:56:50.097Z,27.71
2018-07-06T09:59:18.021Z,28.49
2018-07-06T10:01:45.970Z,29.43
2018-07-06T10:04:13.835Z,30.78
2018-07-06T10:06:41.756Z,31.65
2018-07-06T10:09:10.229Z,32.79
2018-07-06T10:11:38.158Z,33.56
2018-07-06T10:14:06.084Z,34.29
2018-07-06T10:16:34.065Z,34.93
2018-07-06T10:19:01.984Z,35.31
2018-07-06T10:21:29.792Z,34.80
2018-07-06T10:23:57.676Z,34.50
2018-07-06T10:26:25.534Z,34.19
2018-07-06T10:30:13.326Z,34.46
2018-07-06T10:32:41.186Z,34.19
2018-07-06T10:35:08.992Z,34.73
2018-07-06T10:37:36.869Z,35.60
2018-07-06T10:40:05.091Z,35.80
2018-07-06T10:42:32.827Z,36.08
2018-07-06T10:45:00.738Z,35.67
2018-07-06T10:47:28.644Z,36.06
2018-07-06T10:49:56.529Z,36.75
2018-07-06T10:52:24.435Z,37.36
2018-07-06T10:54:52.397Z,37.89
2018-07-06T10:57:20.209Z,38.18
2018-07-06T10:59:48.075Z,37.54
2018-07-06T11:02:15.860Z,37.19
2018-07-06T11:04:43.800Z,36.18
2018-07-06T11:07:11.709Z,35.93
2018-07-06T11:09:39.497Z,35.79
2018-07-06T11:12:07.353Z,36.81
2018-07-06T11:14:35.277Z,37.25
2018-07-06T11:17:03.242Z,36.92
2018-07-06T11:19:31.121Z,36.49
2018-07-06T11:21:59.002Z,36.30
2018-07-06T11:24:26.896Z,36.03
2018-07-06T11:26:54.788Z,36.22
2018-07-06T11:29:22.681Z,36.33
2018-07-06T11:31:50.508Z,35.91
2018-07-06T11:34:18.398Z,35.68
2018-07-06T11:36:46.309Z,36.41
2018-07-06T11:39:14.225Z,36.74
2018-07-06T11:41:42.220Z,36.93
2018-07-06T11:44:10.137Z,37.03
2018-07-06T11:46:38.078Z,36.66
2018-07-06T11:49:06.026Z,36.16
2018-07-06T11:51:33.969Z,35.86
2018-07-06T11:54:01.930Z,36.18
2018-07-06T11:56:29.805Z,36.90
2018-07-06T11:58:57.756Z,37.39
2018-07-06T12:01:25.649Z,38.02
2018-07-06T12:03:53.530Z,37.66
2018-07-06T12:06:21.549Z,36.90
2018-07-06T12:08:49.537Z,36.44
2018-07-06T12:11:17.409Z,36.37
2018-07-06T12:13:45.280Z,36.76
2018-07-06T12:16:13.216Z,37.14
2018-07-06T12:18:41.096Z,37.63
2018-07-06T12:21:09.073Z,38.04
2018-07-06T12:23:36.999Z,38.15
2018-07-06T12:26:04.997Z,37.63
2018-07-06T12:28:32.874Z,36.87
2018-07-06T12:31:00.869Z,36.20
2018-07-06T12:33:28.722Z,35.72
2018-07-06T12:35:56.596Z,35.92
2018-07-06T12:38:24.512Z,36.33
2018-07-06T12:40:52.601Z,36.79
2018-07-06T12:43:21.383Z,36.16
2018-07-06T12:45:49.311Z,36.62
2018-07-06T12:48:17.236Z,36.72
2018-07-06T12:50:49.588Z,37.12
2018-07-06T12:53:17.544Z,37.46
2018-07-06T12:55:45.441Z,37.57
2018-07-06T12:58:13.372Z,37.26
2018-07-06T13:00:41.183Z,37.22
2018-07-06T13:03:09.076Z,36.85
2018-07-06T13:05:38.116Z,36.75
2018-07-06T13:08:06.013Z,36.28
2018-07-06T13:10:34.013Z,35.97
2018-07-06T13:13:01.857Z,35.53
2018-07-06T13:15:29.740Z,35.26
2018-07-06T13:17:57.829Z,35.58
2018-07-06T13:20:25.701Z,35.34
2018-07-06T13:22:53.488Z,34.87
2018-07-06T13:25:21.375Z,34.70
2018-07-06T13:27:49.268Z,34.63
2018-07-06T13:30:17.197Z,34.44
2018-07-06T13:32:45.212Z,34.24
2018-07-06T13:35:13.093Z,34.38
2018-07-06T13:37:40.965Z,34.05
2018-07-06T13:40:08.898Z,33.75
2018-07-06T13:42:36.772Z,33.56
2018-07-06T13:45:04.723Z,33.48
2018-07-06T13:47:33.055Z,33.65
2018-07-06T13:50:02.003Z,33.46
2018-07-06T13:52:29.845Z,33.52
2018-07-06T13:54:57.641Z,33.31
2018-07-06T13:57:25.649Z,33.30
2018-07-06T13:59:53.470Z,33.07
2018-07-06T14:02:21.369Z,33.20
2018-07-06T14:04:49.284Z,33.30
2018-07-06T14:07:17.253Z,33.14
2018-07-06T14:09:45.133Z,32.76
2018-07-06T14:12:13.093Z,32.96
2018-07-06T14:14:41.057Z,32.69
2018-07-06T14:17:09.023Z,32.51
2018-07-06T14:19:36.933Z,32.27
2018-07-06T14:22:04.849Z,32.05
2018-07-06T14:24:32.751Z,31.92
2018-07-06T14:27:00.668Z,31.76
2018-07-06T14:29:28.904Z,31.65
2018-07-06T14:31:57.061Z,31.44
2018-07-06T14:34:24.941Z,31.24
2018-07-06T14:36:52.908Z,31.30
2018-07-06T14:39:20.827Z,31.11
2018-07-06T14:41:48.766Z,31.13
2018-07-06T14:44:16.649Z,30.94
2018-07-06T14:46:45.126Z,30.89
2018-07-06T14:49:13.037Z,30.70
2018-07-06T14:51:41.357Z,30.87
2018-07-06T14:54:09.209Z,30.87
2018-07-06T14:56:37.066Z,30.94
2018-07-06T14:59:05.752Z,30.92
2018-07-06T15:01:34.105Z,30.96
2018-07-06T15:04:02.640Z,30.96
2018-07-06T15:06:31.157Z,30.94
2018-07-06T15:08:59.029Z,30.85
2018-07-06T15:11:26.873Z,30.98
2018-07-06T15:13:54.765Z,30.76
2018-07-06T15:16:22.666Z,30.88
2018-07-06T15:18:50.537Z,30.90
2018-07-06T15:21:18.457Z,30.88
2018-07-06T15:23:46.361Z,30.95
2018-07-06T15:26:14.310Z,31.01
2018-07-06T15:28:42.248Z,31.17
2018-07-06T15:31:10.182Z,30.91
2018-07-06T15:33:38.087Z,30.83
2018-07-06T15:36:05.985Z,30.79
2018-07-06T15:38:33.876Z,30.88
2018-07-06T15:41:01.769Z,31.11
2018-07-06T15:43:29.657Z,31.33
2018-07-06T15:45:57.538Z,31.24
2018-07-06T15:48:25.362Z,31.17
2018-07-06T15:50:53.351Z,31.12
2018-07-06T15:53:21.233Z,30.78
2018-07-06T15:55:49.378Z,30.70
2018-07-06T15:58:17.229Z,30.65
2018-07-06T16:00:45.149Z,30.51
2018-07-06T16:03:13.045Z,30.41
2018-07-06T16:05:41.025Z,30.23
2018-07-06T16:08:08.940Z,30.18
2018-07-06T16:10:36.857Z,30.03
2018-07-06T16:13:04.708Z,29.90
2018-07-06T16:15:32.582Z,29.87
2018-07-06T16:18:00.813Z,29.78
2018-07-06T16:20:28.716Z,29.63
2018-07-06T16:22:56.643Z,29.50
2018-07-06T16:25:26.482Z,29.54
2018-07-06T16:27:54.481Z,29.29
2018-07-06T16:30:22.294Z,29.08
2018-07-06T16:32:50.225Z,29.04
2018-07-06T16:35:18.101Z,29.08
2018-07-06T16:37:45.997Z,28.80
2018-07-06T16:40:13.896Z,29.01
2018-07-06T16:42:41.803Z,28.91
2018-07-06T16:45:09.669Z,28.67
2018-07-06T16:47:37.594Z,28.77
2018-07-06T16:50:05.526Z,28.70
2018-07-06T16:52:33.532Z,28.68
2018-07-06T16:55:01.514Z,28.68
2018-07-06T16:57:29.464Z,28.66
2018-07-06T16:59:57.457Z,28.59
2018-07-06T17:02:25.261Z,28.49
2018-07-06T17:04:53.131Z,28.46
2018-07-06T17:07:21.171Z,28.45
2018-07-06T17:09:49.097Z,28.20
2018-07-06T17:12:17.077Z,28.20
2018-07-06T17:14:45.032Z,28.26
2018-07-06T17:17:12.993Z,28.19
2018-07-06T17:19:40.934Z,28.01
2018-07-06T17:22:08.849Z,27.89
2018-07-06T17:24:36.883Z,27.80
2018-07-06T17:27:04.839Z,27.94
2018-07-06T17:29:33.037Z,27.57
2018-07-06T17:32:01.043Z,27.32
2018-07-06T17:34:29.802Z,27.49
2018-07-06T17:36:58.550Z,27.39
2018-07-06T17:39:26.473Z,27.35
2018-07-06T17:41:54.390Z,27.13
2018-07-06T17:44:22.431Z,27.24
2018-07-06T17:46:50.325Z,27.18
2018-07-06T17:49:19.099Z,27.24
2018-07-06T17:51:47.019Z,27.14
2018-07-06T17:54:15.815Z,27.07
2018-07-06T17:56:44.186Z,27.07
2018-07-06T17:59:12.330Z,26.85
2018-07-06T18:01:40.375Z,26.85
2018-07-06T18:04:08.904Z,26.64
2018-07-06T18:06:37.482Z,26.55
2018-07-06T18:09:05.989Z,26.52
2018-07-06T18:11:33.914Z,26.56
2018-07-06T18:14:02.012Z,26.33
2018-07-06T18:16:31.218Z,26.14
2018-07-06T18:18:59.245Z,26.20
2018-07-06T18:21:27.393Z,26.15
2018-07-06T18:23:57.060Z,26.23
2018-07-06T18:26:25.034Z,26.09
2018-07-06T18:28:53.025Z,25.98
2018-07-06T18:31:21.249Z,25.89
2018-07-06T18:33:49.546Z,25.79
2018-07-06T18:36:17.625Z,25.77
2018-07-06T18:38:46.479Z,25.68
2018-07-06T18:41:15.943Z,25.65
2018-07-06T18:43:44.085Z,25.62
2018-07-06T18:46:12.148Z,25.41
2018-07-06T18:48:40.049Z,25.36
2018-07-06T18:51:08.030Z,25.29
2018-07-06T18:53:35.977Z,25.21
2018-07-06T18:56:03.969Z,25.15
2018-07-06T18:58:32.204Z,25.05
2018-07-06T19:01:00.222Z,25.01
2018-07-06T19:03:28.181Z,24.94
2018-07-06T19:05:56.466Z,24.90
2018-07-06T19:08:24.505Z,24.77
2018-07-06T19:10:52.681Z,24.69
2018-07-06T19:13:21.164Z,24.66
2018-07-06T19:15:49.517Z,24.48
2018-07-06T19:18:17.728Z,24.44
2018-07-06T19:20:45.774Z,24.26
2018-07-06T19:23:14.748Z,24.22
2018-07-06T19:25:43.389Z,24.10
2018-07-06T19:28:11.409Z,24.06
2018-07-06T19:30:40.241Z,24.11
2018-07-06T19:33:08.281Z,24.12
2018-07-06T19:35:36.390Z,23.94
2018-07-06T19:38:05.028Z,23.92
2018-07-06T19:40:33.274Z,23.80
2018-07-06T19:43:01.247Z,23.61
2018-07-06T19:45:29.306Z,23.68
2018-07-06T19:47:57.181Z,23.52
2018-07-06T19:50:25.038Z,23.51
2018-07-06T19:52:53.769Z,23.41
2018-07-06T19:55:21.814Z,23.38
2018-07-06T19:57:49.658Z,23.29
2018-07-06T20:00:17.574Z,23.25
2018-07-06T20:02:45.562Z,23.13
2018-07-06T20:05:13.602Z,23.00
2018-07-06T20:07:42.235Z,22.99
2018-07-06T20:10:10.357Z,22.99
2018-07-06T20:12:41.054Z,22.89
2018-07-06T20:15:19.252Z,22.83
2018-07-06T20:17:48.622Z,22.58
2018-07-06T20:20:18.910Z,22.56
2018-07-06T20:22:46.863Z,22.47
2018-07-06T20:25:15.509Z,22.49
2018-07-06T20:27:43.541Z,22.59
2018-07-06T20:30:12.424Z,22.50
2018-07-06T20:32:40.761Z,22.45
2018-07-06T20:35:08.647Z,22.36
2018-07-06T20:37:36.750Z,22.26
2018-07-06T20:40:04.908Z,22.21
2018-07-06T20:42:38.009Z,22.06
2018-07-06T20:45:06.986Z,22.03
2018-07-06T20:47:35.026Z,21.89
2018-07-06T20:50:03.613Z,21.99
2018-07-06T20:52:32.066Z,21.89
2018-07-06T20:55:00.104Z,21.84
2018-07-06T20:57:28.441Z,21.94
2018-07-06T20:59:56.358Z,21.84
2018-07-06T21:02:24.437Z,21.74
2018-07-06T21:04:52.514Z,21.64
2018-07-06T21:07:20.457Z,21.52
2018-07-06T21:09:48.450Z,21.57
2018-07-06T21:12:16.916Z,21.46
2018-07-06T21:14:44.817Z,21.39
2018-07-06T21:17:14.619Z,21.43
2018-07-06T21:19:42.688Z,21.36
2018-07-06T21:22:10.660Z,21.28
2018-07-06T21:24:41.831Z,21.28
2018-07-06T21:27:10.386Z,21.22
2018-07-06T21:29:40.034Z,21.02
2018-07-06T21:32:07.924Z,21.06
2018-07-06T21:34:35.869Z,20.98
2018-07-06T21:37:03.895Z,20.80
2018-07-06T21:39:31.749Z,20.82
2018-07-06T21:41:59.833Z,20.70
2018-07-06T21:44:27.690Z,20.65
2018-07-06T21:46:56.242Z,20.63
2018-07-06T21:49:24.670Z,20.63
2018-07-06T21:51:54.899Z,20.59
2018-07-06T21:54:23.995Z,20.65
2018-07-06T21:56:52.074Z,20.65
2018-07-06T21:59:20.016Z,20.52
2018-07-06T22:01:48.862Z,20.56
2018-07-06T22:04:20.639Z,20.36
2018-07-06T22:06:50.583Z,20.29
2018-07-06T22:09:18.538Z,20.27
2018-07-06T22:11:48.401Z,20.35
2018-07-06T22:14:23.188Z,20.13
2018-07-06T22:17:00.933Z,19.98
2018-07-06T22:19:28.860Z,19.99
2018-07-06T22:21:56.820Z,20.11
2018-07-06T22:24:25.192Z,19.94
2018-07-06T22:26:53.369Z,19.92
2018-07-06T22:29:21.317Z,20.00
2018-07-06T22:31:49.697Z,19.91
2018-07-06T22:34:18.516Z,19.77
2018-07-06T22:36:46.410Z,19.84
2018-07-06T22:39:14.334Z,19.69
2018-07-06T22:41:42.257Z,19.72
2018-07-06T22:44:10.289Z,19.55
2018-07-06T22:46:38.300Z,19.52
2018-07-06T22:49:06.453Z,19.48
2018-07-06T22:51:34.358Z,19.39
2018-07-06T22:54:02.583Z,19.43
2018-07-06T22:56:30.693Z,19.36
2018-07-06T22:58:58.606Z,19.31
2018-07-06T23:01:27.625Z,19.27
2018-07-06T23:03:55.696Z,19.22
2018-07-06T23:06:24.160Z,19.17
2018-07-06T23:08:52.501Z,19.19
2018-07-06T23:11:21.171Z,19.22
2018-07-06T23:13:49.175Z,19.11
2018-07-06T23:16:23.631Z,19.09
2018-07-06T23:18:55.272Z,18.94
2018-07-06T23:21:26.897Z,18.87
2018-07-06T23:23:56.004Z,18.93
2018-07-06T23:26:23.991Z,18.79
2018-07-06T23:28:51.807Z,18.89
2018-07-06T23:31:19.717Z,18.62
2018-07-06T23:33:47.605Z,18.64
2018-07-06T23:36:15.504Z,18.68
2018-07-06T23:38:43.338Z,18.67
2018-07-06T23:41:11.268Z,18.59
2018-07-06T23:43:39.208Z,18.53
2018-07-06T23:46:07.097Z,18.45
2018-07-06T23:48:34.905Z,18.39
2018-07-06T23:51:02.800Z,18.31
2018-07-06T23:53:30.709Z,18.39
2018-07-06T23:55:58.572Z,18.33
2018-07-06T23:58:26.476Z,18.30
